Nearby METAR Reports

 

YSRI - Richmond (aus-Af, Australia
Distance from station: SW 65km
Updated: 19/09/2020 09:37
Overcast
Overcast
 Wind from SSE
Wind: SSE 6 km/h
Temperature: 17°C
Dew Point: 16°C
Humidity: 94%
Barometer: 1027 hPa
Clouds: Overcast
Visibility: 9 km
Cloud details: Mostly cloudy 183 m
Mostly cloudy 884 m
Overcast 1219 m
2020/09/18 23:37 YSRI 182337Z AUTO 15003KT 9000 // BKN006 BKN029 OVC040 17/16 Q1027
YWLM - Williamtown Arp, Australia
Distance from station: NE 69km
Updated: 19/09/2020 09:30
Partly cloudy
Partly cloudy
 Wind from NE
Wind: NE 19 km/h
Temperature: 22°C
Dew Point: 16°C
Humidity: 69%
Barometer: 1026 hPa
Clouds: Partly cloudy
Visibility: 10 km
Cloud details: Partly cloudy 579 m
2020/09/18 23:30 YWLM 182330Z AUTO 05010KT 9999 // SCT019 22/16 Q1026
 
YSSY - Sydney Intl Airp, Australia
Distance from station: SSW 77km
Updated: 19/09/2020 09:30
Mostly cloudy
Mostly cloudy
 Wind from W
Wind: W 7 km/h
Temperature: 18°C
Dew Point: 16°C
Humidity: 88%
Barometer: 1027 hPa
Clouds: Mostly cloudy
Visibility: 9 km
Cloud details: Partly cloudy 305 m
Partly cloudy 518 m
Mostly cloudy 1219 m
2020/09/18 23:30 YSSY 182330Z 27004KT 9000 SCT010 SCT017 BKN040 18/16 Q1027 FM0100 05015KT 9999 SCT030